Time;durP1;ratioP1;P1;durP2;ratioP2;P2;SDS_P1;SDS_P2;PMS_P1;PMS_P2;Temp;Humidity;BMP_temperature;BMP_pressure;BME280_temperature;BME280_humidity;BME280_pressure;Samples;Min_cycle;Max_cycle;Signal;HPM_P1;HPM_P2
2022/01/14 00:02:05;;;;;;;74.53;19.40;;;1.90;99.90;;;;;;5059990;28;20906;-85
2022/01/14 00:04:32;;;;;;;146.07;23.03;;;1.90;99.90;;;;;;5059999;28;21027;-86
2022/01/14 00:07:06;;;;;;;94.00;19.70;;;1.80;99.90;;;;;;5059853;28;20463;-85
2022/01/14 00:09:36;;;;;;;57.37;20.43;;;1.80;99.90;;;;;;5059805;28;20926;-88
2022/01/14 00:12:15;;;;;;;62.83;20.10;;;1.80;99.90;;;;;;5060010;28;20431;-86
2022/01/14 00:14:45;;;;;;;42.13;19.27;;;1.80;99.90;;;;;;5059832;28;20466;-85
2022/01/14 00:17:15;;;;;;;69.60;21.27;;;1.80;99.90;;;;;;5060032;28;20459;-86
2022/01/14 00:19:44;;;;;;;42.20;18.47;;;1.80;99.90;;;;;;5059863;28;20435;-85
2022/01/14 00:22:13;;;;;;;40.00;18.77;;;1.80;99.90;;;;;;5059789;28;20403;-88
2022/01/14 00:33:19;;;;;;;24.60;17.33;;;1.70;99.90;;;;;;5017687;28;20892;-86
2022/01/14 00:35:47;;;;;;;28.33;19.27;;;1.60;99.90;;;;;;5017856;28;20437;-88
2022/01/14 00:38:15;;;;;;;28.03;19.60;;;1.50;99.90;;;;;;5017712;28;20476;-86
2022/01/14 00:40:43;;;;;;;25.97;16.77;;;1.50;99.90;;;;;;5017828;28;20456;-87
2022/01/14 00:43:13;;;;;;;25.67;16.67;;;1.60;99.90;;;;;;5017849;28;20575;-85
2022/01/14 00:45:46;;;;;;;27.90;18.20;;;1.50;99.90;;;;;;5053150;28;20486;-88
2022/01/14 00:48:15;;;;;;;29.07;19.10;;;1.60;99.90;;;;;;5059729;28;20443;-89
2022/01/14 00:50:44;;;;;;;29.50;18.83;;;1.60;99.90;;;;;;5059556;28;20969;-86
2022/01/14 00:53:11;;;;;;;26.47;18.90;;;1.60;99.90;;;;;;5059289;28;20443;-87
2022/01/14 00:55:50;;;;;;;28.93;18.67;;;1.70;99.90;;;;;;5059211;28;20461;-85
2022/01/14 01:01:08;;;;;;;30.03;18.63;;;1.60;99.90;;;;;;5055525;28;20412;-85
2022/01/14 01:03:35;;;;;;;30.03;19.57;;;1.60;99.90;;;;;;5056452;28;20435;-87
2022/01/14 01:06:06;;;;;;;29.20;17.67;;;1.60;99.90;;;;;;5055819;28;20483;-84
2022/01/14 01:08:39;;;;;;;30.83;19.33;;;1.60;99.90;;;;;;5056070;28;20447;-86
2022/01/14 01:11:10;;;;;;;30.67;19.17;;;1.50;99.90;;;;;;5055925;28;20443;-87
2022/01/14 01:13:43;;;;;;;28.97;18.33;;;1.60;99.90;;;;;;5056120;28;20527;-86
2022/01/14 01:16:16;;;;;;;30.70;20.07;;;1.60;99.90;;;;;;5055648;28;20455;-87
2022/01/14 01:18:48;;;;;;;29.77;19.90;;;1.50;99.90;;;;;;5055820;28;20440;-86
2022/01/14 01:21:17;;;;;;;27.10;19.30;;;1.50;99.90;;;;;;5055767;28;20463;-87
2022/01/14 01:23:49;;;;;;;31.27;20.83;;;1.60;99.90;;;;;;5055675;28;20547;-85
2022/01/14 01:26:23;;;;;;;32.07;20.13;;;1.50;99.90;;;;;;5055405;28;20483;-87
2022/01/14 01:29:00;;;;;;;32.80;21.20;;;1.40;99.90;;;;;;5037893;28;20439;-88
2022/01/14 01:31:38;;;;;;;38.60;30.35;;;1.50;99.90;;;;;;5054405;28;20429;-87
2022/01/14 01:34:09;;;;;;;32.43;23.27;;;1.60;99.90;;;;;;5055031;28;20202;-85
2022/01/14 01:36:42;;;;;;;36.33;22.87;;;1.70;99.90;;;;;;5055826;28;20440;-87
2022/01/14 01:39:15;;;;;;;33.03;22.23;;;1.70;99.90;;;;;;5055501;28;20490;-87
2022/01/14 01:41:48;;;;;;;37.70;21.63;;;1.60;99.90;;;;;;5055237;28;20436;-86
2022/01/14 01:44:22;;;;;;;33.60;20.77;;;1.70;99.90;;;;;;5055540;28;20462;-86
2022/01/14 01:46:50;;;;;;;32.33;21.40;;;1.60;99.90;;;;;;5055488;28;20475;-86
2022/01/14 01:49:20;;;;;;;31.97;21.20;;;1.70;99.90;;;;;;5055235;28;20535;-86
2022/01/14 01:51:54;;;;;;;29.90;20.20;;;1.60;99.90;;;;;;5055481;28;20458;-85
2022/01/14 01:54:23;;;;;;;32.60;21.90;;;1.50;99.90;;;;;;5054869;28;20965;-85
2022/01/14 01:56:57;;;;;;;34.03;21.77;;;1.60;99.90;;;;;;5055537;28;20452;-87
2022/01/14 01:59:27;;;;;;;34.03;21.17;;;1.60;99.90;;;;;;5055096;28;20953;-88
2022/01/14 02:01:56;;;;;;;30.97;21.20;;;1.50;99.90;;;;;;5055169;28;20447;-87
2022/01/14 02:04:26;;;;;;;37.83;25.25;;;1.50;99.90;;;;;;5054496;28;20450;-86
2022/01/14 02:06:58;;;;;;;30.53;22.57;;;1.50;99.90;;;;;;5055074;28;20218;-89
2022/01/14 02:09:26;;;;;;;34.67;22.47;;;1.50;99.90;;;;;;5055108;28;20452;-86
2022/01/14 02:11:55;;;;;;;32.30;21.40;;;1.60;99.90;;;;;;5052823;28;20459;-85
2022/01/14 02:14:52;;;;;;;31.23;20.87;;;1.60;99.90;;;;;;5037071;28;20444;-86
2022/01/14 02:22:54;;;;;;;33.37;20.93;;;1.60;99.90;;;;;;5024059;28;20434;-87
2022/01/14 02:25:28;;;;;;;37.27;20.53;;;1.60;99.90;;;;;;5054647;28;20820;-86
2022/01/14 02:28:00;;;;;;;34.07;20.80;;;1.60;99.90;;;;;;5036853;28;20958;-85
2022/01/14 02:30:30;;;;;;;40.20;22.90;;;1.60;99.90;;;;;;5054929;28;20432;-85
2022/01/14 02:32:58;;;;;;;40.00;23.33;;;1.60;99.90;;;;;;5054632;28;20941;-87
2022/01/14 02:35:30;;;;;;;38.67;23.40;;;1.60;99.90;;;;;;5036885;28;20469;-86
2022/01/14 02:37:57;;;;;;;42.97;23.13;;;1.60;99.90;;;;;;5054466;28;20463;-87
2022/01/14 02:40:29;;;;;;;48.23;25.57;;;1.50;99.90;;;;;;5054726;28;20454;-86
2022/01/14 02:43:05;;;;;;;44.93;23.27;;;1.50;99.90;;;;;;5054465;28;20450;-86
2022/01/14 02:45:37;;;;;;;39.77;23.53;;;1.50;99.90;;;;;;5054904;28;20479;-86
2022/01/14 02:48:18;;;;;;;43.70;24.13;;;1.60;99.90;;;;;;5054580;28;20459;-88
2022/01/14 02:51:10;;;;;;;37.00;23.00;;;1.70;99.90;;;;;;5054688;28;20462;-87
2022/01/14 02:53:56;;;;;;;43.53;25.17;;;1.70;99.90;;;;;;5054488;28;20443;-88
2022/01/14 02:56:31;;;;;;;47.27;23.83;;;1.70;99.90;;;;;;5054584;28;20866;-87
2022/01/14 02:59:01;;;;;;;45.30;24.60;;;1.70;99.90;;;;;;5054439;28;20443;-88
2022/01/14 03:01:29;;;;;;;50.13;25.80;;;1.80;99.90;;;;;;5054438;28;20455;-87
2022/01/14 03:04:02;;;;;;;45.83;26.23;;;1.80;99.90;;;;;;5054102;28;20439;-87
2022/01/14 03:06:36;;;;;;;48.70;26.63;;;1.80;99.90;;;;;;5054096;28;20831;-88
2022/01/14 03:09:04;;;;;;;50.20;27.47;;;1.80;99.90;;;;;;5054475;28;20447;-87
2022/01/14 03:11:42;;;;;;;42.37;26.17;;;1.90;99.90;;;;;;5054468;28;20577;-86
2022/01/14 03:14:22;;;;;;;57.28;37.90;;;1.90;99.90;;;;;;5053330;28;20422;-88
2022/01/14 03:16:53;;;;;;;49.73;28.90;;;1.90;99.90;;;;;;5054395;28;20202;-88
2022/01/14 03:19:22;;;;;;;54.77;26.73;;;1.90;99.90;;;;;;5055960;28;20493;-86
2022/01/14 03:22:06;;;;;;;51.03;28.13;;;1.90;99.90;;;;;;5054442;28;20539;-88
2022/01/14 03:27:21;;;;;;;43.60;26.40;;;1.80;99.90;;;;;;5038635;28;20466;-86
2022/01/14 03:29:51;;;;;;;47.07;26.97;;;1.80;99.90;;;;;;5053522;28;20456;-86
2022/01/14 03:32:24;;;;;;;52.93;26.93;;;1.70;99.90;;;;;;5053997;28;20521;-87
2022/01/14 03:34:54;;;;;;;46.83;27.77;;;1.80;99.90;;;;;;5053790;28;20447;-85
2022/01/14 03:37:23;;;;;;;49.47;27.83;;;1.80;99.90;;;;;;5054205;28;20451;-85
2022/01/14 03:39:57;;;;;;;48.70;27.40;;;1.80;99.90;;;;;;5054190;28;20463;-86
2022/01/14 03:42:27;;;;;;;57.93;28.90;;;1.90;99.90;;;;;;5037569;28;20442;-86
2022/01/14 03:44:59;;;;;;;51.57;28.20;;;1.90;99.90;;;;;;5055378;28;20443;-86
2022/01/14 03:47:33;;;;;;;52.80;28.40;;;1.90;99.90;;;;;;5038500;28;20881;-89
2022/01/14 03:50:02;;;;;;;49.43;28.10;;;1.90;99.90;;;;;;5055190;28;20497;-86
2022/01/14 03:52:32;;;;;;;63.93;31.27;;;2.00;99.90;;;;;;5054969;28;20446;-87
2022/01/14 03:54:59;;;;;;;57.70;30.47;;;2.10;99.90;;;;;;5053368;28;20443;-87
2022/01/14 03:57:31;;;;;;;59.43;31.53;;;2.10;99.90;;;;;;5053608;28;20450;-86
2022/01/14 04:00:05;;;;;;;58.30;31.77;;;2.00;99.90;;;;;;5053430;28;20466;-86
2022/01/14 04:02:34;;;;;;;60.47;31.17;;;2.00;99.90;;;;;;5053501;28;20875;-86
2022/01/14 04:05:04;;;;;;;63.63;31.97;;;2.00;99.90;;;;;;5053309;28;20459;-84
2022/01/14 04:07:36;;;;;;;51.87;29.33;;;1.90;99.90;;;;;;5053791;28;20510;-85
2022/01/14 04:10:11;;;;;;;54.93;29.27;;;1.90;99.90;;;;;;5053411;28;20964;-86
2022/01/14 04:12:49;;;;;;;56.77;27.50;;;1.90;99.90;;;;;;5035453;28;20856;-86
2022/01/14 04:15:42;;;;;;;53.17;28.03;;;1.90;99.90;;;;;;5053217;28;20440;-87
2022/01/14 04:18:17;;;;;;;52.43;28.23;;;1.90;99.90;;;;;;5053018;28;20442;-88
2022/01/14 04:20:47;;;;;;;52.80;25.77;;;1.90;99.90;;;;;;5053208;28;20451;-87
2022/01/14 04:23:23;;;;;;;49.00;25.33;;;1.80;99.90;;;;;;5057139;28;20447;-86
2022/01/14 04:25:52;;;;;;;46.30;26.00;;;1.70;99.90;;;;;;5056785;28;20533;-85
2022/01/14 04:28:19;;;;;;;48.97;25.93;;;1.70;99.90;;;;;;5054763;28;20440;-88
2022/01/14 04:30:48;;;;;;;44.37;25.60;;;1.70;99.90;;;;;;5054360;28;20419;-87
2022/01/14 04:33:17;;;;;;;42.47;26.33;;;1.70;99.90;;;;;;5055242;28;20440;-89
2022/01/14 04:35:44;;;;;;;51.83;26.70;;;1.70;99.90;;;;;;5055846;28;20845;-86
2022/01/14 04:38:12;;;;;;;46.90;26.23;;;1.70;99.90;;;;;;5058561;28;20474;-86
2022/01/14 04:40:47;;;;;;;44.10;25.23;;;1.70;99.90;;;;;;5058366;28;20448;-87
2022/01/14 04:43:22;;;;;;;45.73;24.97;;;1.70;99.90;;;;;;5057797;28;20524;-86
2022/01/14 04:46:24;;;;;;;51.27;25.77;;;1.70;99.90;;;;;;5057222;28;20525;-86
2022/01/14 04:48:53;;;;;;;51.57;26.17;;;1.60;99.90;;;;;;5058394;28;20529;-87
2022/01/14 04:51:30;;;;;;;50.13;27.13;;;1.60;99.90;;;;;;5058540;28;20493;-86
2022/01/14 04:53:59;;;;;;;51.57;27.50;;;1.60;99.90;;;;;;5057717;28;20452;-89
2022/01/14 04:56:34;;;;;;;65.40;36.45;;;1.60;99.90;;;;;;5038426;28;20437;-88
2022/01/14 04:59:01;;;;;;;55.27;29.07;;;1.70;99.90;;;;;;5056809;28;20294;-86
2022/01/14 05:01:32;;;;;;;50.87;27.70;;;1.60;99.90;;;;;;5056893;28;20450;-87
2022/01/14 05:04:02;;;;;;;51.57;28.40;;;1.60;99.90;;;;;;5038385;28;21008;-86
2022/01/14 05:06:31;;;;;;;54.37;27.40;;;1.60;99.90;;;;;;5056592;28;20487;-88
2022/01/14 05:09:05;;;;;;;53.10;27.70;;;1.60;99.90;;;;;;5056355;28;20455;-86
2022/01/14 05:11:40;;;;;;;53.93;29.30;;;1.60;99.90;;;;;;5056352;28;20504;-87
2022/01/14 05:14:17;;;;;;;55.03;28.80;;;1.50;99.90;;;;;;5056252;28;20482;-86
2022/01/14 05:16:44;;;;;;;58.50;30.40;;;1.50;99.90;;;;;;5055760;28;20462;-85
2022/01/14 05:19:13;;;;;;;58.67;29.03;;;1.50;99.90;;;;;;5056022;28;20463;-89
2022/01/14 05:21:42;;;;;;;61.97;30.67;;;1.60;99.90;;;;;;5055972;28;20452;-88
2022/01/14 05:24:12;;;;;;;65.30;30.77;;;1.60;99.90;;;;;;5056498;28;20463;-88
2022/01/14 05:26:43;;;;;;;73.43;33.13;;;1.70;99.90;;;;;;5055913;28;20486;-87
2022/01/14 05:29:13;;;;;;;69.17;33.17;;;1.80;99.90;;;;;;5056118;28;20444;-87
2022/01/14 05:31:50;;;;;;;87.93;45.35;;;1.80;99.90;;;;;;5055316;28;20761;-87
2022/01/14 05:34:20;;;;;;;74.97;37.67;;;1.80;99.90;;;;;;5056129;28;20293;-88
2022/01/14 05:37:01;;;;;;;72.90;34.50;;;1.80;99.90;;;;;;5056140;28;20451;-90
2022/01/14 05:39:35;;;;;;;74.30;34.80;;;1.80;99.90;;;;;;5056100;28;20839;-87
2022/01/14 05:42:07;;;;;;;80.80;31.97;;;1.80;99.90;;;;;;5056226;28;20447;-89
2022/01/14 05:44:38;;;;;;;68.87;33.17;;;1.80;99.90;;;;;;5056404;28;20450;-90
2022/01/14 05:47:10;;;;;;;65.73;31.07;;;1.80;99.90;;;;;;5055400;28;20490;-90
2022/01/14 05:49:45;;;;;;;74.87;31.10;;;1.80;99.90;;;;;;5055997;28;20447;-88
2022/01/14 05:52:19;;;;;;;80.43;33.53;;;1.70;99.90;;;;;;5056064;28;20443;-87
2022/01/14 05:54:46;;;;;;;78.73;34.77;;;1.60;99.90;;;;;;5056196;28;20466;-90
2022/01/14 05:57:18;;;;;;;72.27;33.70;;;1.60;99.90;;;;;;5038275;28;20946;-89
2022/01/14 05:59:45;;;;;;;77.40;32.03;;;1.70;99.90;;;;;;5056147;28;20454;-88
2022/01/14 06:02:12;;;;;;;72.90;32.50;;;1.70;99.90;;;;;;5055088;28;20462;-88
2022/01/14 06:04:49;;;;;;;75.07;32.67;;;1.60;99.90;;;;;;5055772;28;20459;-88
2022/01/14 06:07:16;;;;;;;95.05;50.10;;;1.60;99.90;;;;;;5054724;28;20442;-89
2022/01/14 06:09:45;;;;;;;77.83;37.47;;;1.70;99.90;;;;;;5056035;28;20214;-90
2022/01/14 06:12:12;;;;;;;76.13;35.20;;;1.70;99.90;;;;;;5038211;28;20458;-89
2022/01/14 06:14:43;;;;;;;79.50;34.83;;;1.70;99.90;;;;;;5055587;28;20447;-90
2022/01/14 06:17:43;;;;;;;77.50;34.47;;;1.80;99.90;;;;;;5055800;28;20454;-89
2022/01/14 06:20:16;;;;;;;84.47;33.33;;;1.80;99.90;;;;;;5055880;28;20462;-89
2022/01/14 06:22:43;;;;;;;70.60;32.67;;;1.70;99.90;;;;;;5055856;28;20470;-88
2022/01/14 06:25:16;;;;;;;79.77;34.17;;;1.80;99.90;;;;;;5055586;28;20469;-91
2022/01/14 06:27:51;;;;;;;75.87;34.00;;;1.80;99.90;;;;;;5055577;28;20490;-89
2022/01/14 06:30:21;;;;;;;83.60;34.47;;;1.80;99.90;;;;;;5055457;28;20435;-89
2022/01/14 06:32:52;;;;;;;92.40;37.10;;;1.80;99.90;;;;;;5037505;28;20494;-90
2022/01/14 06:35:25;;;;;;;84.33;35.20;;;1.70;99.90;;;;;;5055607;28;20463;-89
2022/01/14 06:37:52;;;;;;;86.77;36.00;;;1.70;99.90;;;;;;5055800;28;20443;-88
2022/01/14 06:40:19;;;;;;;88.40;36.97;;;1.70;99.90;;;;;;5055551;28;20447;-89
2022/01/14 06:42:49;;;;;;;87.07;37.00;;;1.80;99.90;;;;;;5037881;28;20439;-87
2022/01/14 06:45:26;;;;;;;99.43;40.43;;;1.80;99.90;;;;;;5037929;28;20451;-87
2022/01/14 06:48:00;;;;;;;91.03;37.67;;;1.70;99.90;;;;;;5055152;28;20493;-88
2022/01/14 06:50:30;;;;;;;92.73;38.40;;;1.60;99.90;;;;;;5055332;28;20447;-89
2022/01/14 06:52:58;;;;;;;95.37;37.30;;;1.70;99.90;;;;;;5055222;28;20481;-88
2022/01/14 06:55:26;;;;;;;90.87;38.17;;;1.80;99.90;;;;;;5037577;28;20478;-91
2022/01/14 06:57:59;;;;;;;90.60;36.63;;;1.70;99.90;;;;;;5055066;28;20447;-90
2022/01/14 07:00:37;;;;;;;82.30;36.13;;;1.70;99.90;;;;;;5055322;28;20435;-90
2022/01/14 07:03:06;;;;;;;97.57;37.30;;;1.70;99.90;;;;;;5055402;28;20428;-90
2022/01/14 07:05:33;;;;;;;117.83;41.13;;;1.80;99.90;;;;;;5055167;28;20451;-90
2022/01/14 07:08:01;;;;;;;120.10;41.27;;;1.90;99.90;;;;;;5054833;28;20478;-88
2022/01/14 07:10:35;;;;;;;114.70;39.67;;;2.00;99.90;;;;;;5054487;28;20442;-86
2022/01/14 07:13:05;;;;;;;113.57;40.57;;;2.10;99.90;;;;;;5054785;28;20443;-88
2022/01/14 07:15:45;;;;;;;141.30;41.78;;;2.10;99.90;;;;;;5055186;28;20405;-88
2022/01/14 07:18:16;;;;;;;155.37;41.33;;;1.80;99.90;;;;;;5055208;28;20699;-90
2022/01/14 07:20:55;;;;;;;151.90;41.60;;;1.80;99.90;;;;;;5055296;28;20493;-88
2022/01/14 07:23:44;;;;;;;133.77;39.77;;;2.00;99.90;;;;;;5055104;28;20451;-89
2022/01/14 07:26:15;;;;;;;169.87;41.87;;;1.90;99.90;;;;;;5053681;28;20455;-89
2022/01/14 07:28:45;;;;;;;133.47;39.03;;;2.00;99.90;;;;;;5037242;28;20511;-87
2022/01/14 07:31:19;;;;;;;249.93;43.33;;;2.00;99.90;;;;;;5055643;28;20547;-88
2022/01/14 07:33:46;;;;;;;174.07;41.50;;;1.90;99.90;;;;;;5037867;28;20450;-88
2022/01/14 07:36:39;;;;;;;194.57;43.10;;;2.00;99.90;;;;;;5056046;28;20451;-89
2022/01/14 07:39:09;;;;;;;141.57;41.53;;;2.10;99.90;;;;;;5055801;28;20638;-89
2022/01/14 07:41:42;;;;;;;230.30;43.17;;;2.10;99.90;;;;;;5056483;28;20456;-89
2022/01/14 07:44:11;;;;;;;198.60;41.33;;;2.10;99.90;;;;;;5056105;28;20432;-88
2022/01/14 07:46:43;;;;;;;208.47;43.67;;;2.20;99.90;;;;;;5038254;28;20953;-88
2022/01/14 07:49:13;;;;;;;207.30;40.23;;;2.20;99.90;;;;;;5055620;28;20482;-88
2022/01/14 07:51:39;;;;;;;286.52;62.25;;;2.40;99.90;;;;;;5054848;28;20425;-88
2022/01/14 07:54:06;;;;;;;190.77;47.70;;;2.30;99.90;;;;;;5055781;28;20218;-88
2022/01/14 07:57:11;;;;;;;305.33;48.53;;;2.40;99.90;;;;;;5055528;28;20455;-87
2022/01/14 07:59:41;;;;;;;205.13;43.97;;;2.40;99.90;;;;;;5055862;28;20796;-89
2022/01/14 08:02:15;;;;;;;179.60;39.40;;;2.30;99.90;;;;;;5055515;28;20455;-88
2022/01/14 08:04:54;;;;;;;297.93;44.90;;;2.30;99.90;;;;;;5055127;28;20518;-87
2022/01/14 08:07:28;;;;;;;182.37;41.30;;;2.20;99.90;;;;;;5037240;28;20909;-88
2022/01/14 08:09:57;;;;;;;155.90;38.47;;;2.20;99.90;;;;;;5062102;28;20444;-87
2022/01/14 08:12:29;;;;;;;118.43;34.90;;;2.00;99.90;;;;;;5059458;28;20436;-86
2022/01/14 08:14:58;;;;;;;111.27;36.13;;;2.10;99.90;;;;;;5042367;28;20451;-84
2022/01/14 08:17:32;;;;;;;110.20;40.37;;;2.30;99.90;;;;;;5061727;28;20519;-86
2022/01/14 08:20:03;;;;;;;91.30;36.63;;;2.50;99.90;;;;;;5022271;28;20436;-89
2022/01/14 08:22:33;;;;;;;99.53;35.97;;;2.50;99.90;;;;;;5020761;28;20503;-89
2022/01/14 08:25:03;;;;;;;81.67;32.80;;;2.20;99.90;;;;;;5043699;28;20446;-89
2022/01/14 08:27:33;;;;;;;92.27;35.77;;;2.00;99.90;;;;;;5040429;28;20498;-87
2022/01/14 08:30:05;;;;;;;101.47;34.53;;;2.00;99.90;;;;;;5058038;28;20451;-89
2022/01/14 08:32:34;;;;;;;87.37;33.37;;;2.20;99.90;;;;;;5040945;28;20500;-89
2022/01/14 08:35:04;;;;;;;72.23;33.27;;;2.30;99.90;;;;;;5059397;28;20439;-87
2022/01/14 08:37:31;;;;;;;60.20;31.77;;;2.40;99.90;;;;;;5059320;28;20452;-87
2022/01/14 08:40:00;;;;;;;65.17;32.33;;;2.40;99.90;;;;;;5057907;28;20966;-88
2022/01/14 08:42:28;;;;;;;58.43;31.37;;;2.40;99.90;;;;;;5057723;28;20444;-88
2022/01/14 08:44:55;;;;;;;69.10;33.37;;;2.40;99.90;;;;;;5057881;28;20453;-89
2022/01/14 08:47:23;;;;;;;68.50;32.30;;;2.20;99.90;;;;;;5057893;28;20478;-91
2022/01/14 08:49:54;;;;;;;74.63;31.27;;;2.30;99.90;;;;;;5058312;28;20454;-89
2022/01/14 08:52:24;;;;;;;62.37;31.37;;;2.30;99.90;;;;;;5057747;28;20435;-89
2022/01/14 08:54:51;;;;;;;58.93;30.57;;;2.40;99.90;;;;;;5039940;28;20862;-87
2022/01/14 08:57:19;;;;;;;59.77;30.67;;;2.50;99.90;;;;;;5059205;28;20458;-88
2022/01/14 08:59:48;;;;;;;65.17;31.93;;;2.50;99.90;;;;;;5061797;28;21069;-87
2022/01/14 09:02:15;;;;;;;72.63;45.38;;;2.40;99.90;;;;;;5058189;28;20421;-87
2022/01/14 09:04:44;;;;;;;71.43;33.63;;;2.70;99.90;;;;;;5060843;28;20224;-88
2022/01/14 09:07:16;;;;;;;73.10;34.47;;;2.60;99.90;;;;;;5059805;28;20478;-87
2022/01/14 09:09:48;;;;;;;61.83;31.87;;;2.40;99.90;;;;;;5059843;28;20526;-90
2022/01/14 09:12:23;;;;;;;71.40;29.47;;;2.40;99.90;;;;;;5062885;28;20532;-89
2022/01/14 09:15:04;;;;;;;72.40;29.63;;;2.40;99.90;;;;;;5073819;28;20442;-89
2022/01/14 09:17:35;;;;;;;65.33;31.57;;;2.30;99.90;;;;;;5072119;28;20465;-88
2022/01/14 09:20:09;;;;;;;92.90;30.40;;;2.30;99.90;;;;;;5069618;28;20525;-92
2022/01/14 09:22:56;;;;;;;64.43;29.20;;;2.40;99.90;;;;;;5053892;28;20532;-89
2022/01/14 09:25:28;;;;;;;78.23;31.93;;;2.60;99.90;;;;;;5073091;28;20435;-92
2022/01/14 09:28:13;;;;;;;84.90;31.23;;;2.50;99.90;;;;;;5073278;28;20471;-90
2022/01/14 09:30:40;;;;;;;62.67;31.50;;;2.50;99.90;;;;;;5074336;28;20455;-91
2022/01/14 09:33:14;;;;;;;54.17;29.43;;;2.30;99.90;;;;;;5071166;28;20531;-90
2022/01/14 09:35:46;;;;;;;64.23;29.33;;;2.50;99.90;;;;;;5074300;28;20479;-88
2022/01/14 09:38:23;;;;;;;66.57;30.77;;;2.60;99.90;;;;;;5075199;28;20551;-90
2022/01/14 09:40:52;;;;;;;60.93;30.93;;;2.70;99.90;;;;;;5054533;28;20473;-90
2022/01/14 09:43:19;;;;;;;55.77;31.73;;;2.60;99.90;;;;;;5072175;28;20448;-88
2022/01/14 09:45:52;;;;;;;60.70;31.90;;;2.70;99.90;;;;;;5040744;28;20891;-91
2022/01/14 09:48:22;;;;;;;58.67;32.50;;;2.60;99.90;;;;;;5064374;28;20479;-87
2022/01/14 09:50:52;;;;;;;58.80;32.50;;;2.70;99.90;;;;;;5037674;28;20493;-82
2022/01/14 09:53:25;;;;;;;61.33;31.00;;;2.70;99.90;;;;;;5037096;28;20463;-87
2022/01/14 09:55:52;;;;;;;50.37;31.30;;;2.60;99.90;;;;;;5055281;28;20467;-85
2022/01/14 09:58:25;;;;;;;68.43;33.80;;;2.50;99.90;;;;;;5052155;28;20444;-87
2022/01/14 10:01:07;;;;;;;72.87;31.43;;;2.60;99.90;;;;;;5055185;28;20482;-84
2022/01/14 10:03:47;;;;;;;60.47;30.13;;;2.70;99.90;;;;;;5054819;28;20432;-88
2022/01/14 10:06:35;;;;;;;68.27;32.40;;;2.70;99.90;;;;;;5053702;28;20448;-87
2022/01/14 10:09:10;;;;;;;82.77;36.57;;;2.80;99.90;;;;;;5055200;28;20491;-85
2022/01/14 10:12:00;;;;;;;121.63;43.67;;;2.80;99.90;;;;;;5053768;28;20443;-87
2022/01/14 10:14:27;;;;;;;191.37;64.30;;;2.90;99.90;;;;;;5050774;28;20444;-83
2022/01/14 10:16:57;;;;;;;303.63;102.27;;;2.90;99.90;;;;;;5033948;28;20437;-89
2022/01/14 10:19:29;;;;;;;347.63;126.13;;;3.00;99.90;;;;;;5018450;28;20801;-83
2022/01/14 10:21:58;;;;;;;307.43;140.63;;;3.00;99.90;;;;;;5055697;28;20446;-86
2022/01/14 10:24:31;;;;;;;201.07;98.40;;;3.10;99.90;;;;;;5055281;28;20455;-84
2022/01/14 10:27:03;;;;;;;122.07;61.50;;;3.10;99.90;;;;;;5055094;28;20436;-86
2022/01/14 10:29:38;;;;;;;76.23;42.77;;;3.20;99.90;;;;;;5055279;28;20483;-86
2022/01/14 10:32:08;;;;;;;57.33;34.33;;;3.30;99.90;;;;;;5054249;28;20451;-88
2022/01/14 10:34:36;;;;;;;55.13;33.67;;;3.40;99.90;;;;;;5054137;28;20436;-85
2022/01/14 10:37:12;;;;;;;44.70;30.70;;;3.30;99.90;;;;;;5054507;28;20459;-87
2022/01/14 10:39:48;;;;;;;51.93;31.40;;;3.30;99.90;;;;;;5054397;28;20561;-86
2022/01/14 10:42:28;;;;;;;47.27;29.87;;;3.10;99.90;;;;;;5054506;28;20436;-84
2022/01/14 10:44:55;;;;;;;46.47;30.53;;;3.30;99.90;;;;;;5053718;28;20530;-87
2022/01/14 10:47:26;;;;;;;50.90;31.00;;;3.40;99.90;;;;;;5053836;28;20543;-85
2022/01/14 10:49:58;;;;;;;48.63;30.10;;;3.30;99.90;;;;;;5036442;28;20236;-87
2022/01/14 10:52:28;;;;;;;49.57;31.03;;;3.30;99.90;;;;;;5053524;28;20452;-85
2022/01/14 10:54:57;;;;;;;44.30;30.53;;;3.30;99.90;;;;;;5054166;28;20455;-83
2022/01/14 10:57:26;;;;;;;48.40;31.00;;;3.20;99.90;;;;;;5053905;28;20827;-86
2022/01/14 11:00:15;;;;;;;49.40;31.83;;;3.20;99.90;;;;;;5054379;28;20466;-87
2022/01/14 11:02:47;;;;;;;45.50;30.60;;;3.20;99.90;;;;;;5036043;28;20504;-85
2022/01/14 11:05:19;;;;;;;39.33;27.73;;;3.40;99.90;;;;;;5054345;28;20451;-85
2022/01/14 11:07:53;;;;;;;45.70;30.87;;;3.30;99.90;;;;;;5054349;28;20463;-85
2022/01/14 11:10:26;;;;;;;41.93;29.13;;;3.30;99.90;;;;;;5054240;28;20436;-83
2022/01/14 11:12:54;;;;;;;40.00;28.97;;;3.50;99.90;;;;;;5053826;28;20428;-86
2022/01/14 11:15:23;;;;;;;40.63;28.23;;;3.60;99.90;;;;;;5053979;28;20443;-84
2022/01/14 11:17:54;;;;;;;41.90;28.60;;;3.70;99.90;;;;;;5053591;28;20463;-85
2022/01/14 11:20:28;;;;;;;38.37;27.07;;;3.80;99.90;;;;;;5053720;28;20483;-85
2022/01/14 11:23:16;;;;;;;46.75;34.38;;;3.90;99.90;;;;;;5052695;28;20507;-84
2022/01/14 11:25:58;;;;;;;39.03;27.37;;;3.80;99.90;;;;;;5054051;28;20202;-85
2022/01/14 11:28:34;;;;;;;44.10;26.60;;;4.00;99.90;;;;;;5053794;28;20475;-85
2022/01/14 11:31:25;;;;;;;40.67;27.83;;;4.00;99.90;;;;;;5052497;28;20460;-86
2022/01/14 11:34:01;;;;;;;42.47;27.00;;;4.20;99.90;;;;;;5036073;28;20239;-89
2022/01/14 11:36:49;;;;;;;40.83;26.90;;;4.30;99.90;;;;;;5047235;28;20543;-85
2022/01/14 11:39:20;;;;;;;39.37;27.23;;;4.40;99.90;;;;;;5050940;28;20226;-86
2022/01/14 11:41:56;;;;;;;40.50;27.00;;;4.50;99.90;;;;;;5033306;28;20200;-85
2022/01/14 11:44:58;;;;;;;41.13;28.10;;;4.40;99.90;;;;;;5051866;28;20204;-84
2022/01/14 11:47:49;;;;;;;41.13;26.67;;;4.50;99.90;;;;;;5053618;28;20195;-83
2022/01/14 11:50:47;;;;;;;40.30;26.80;;;4.30;99.90;;;;;;5053272;28;20281;-84
2022/01/14 11:53:46;;;;;;;42.60;29.27;;;4.40;99.90;;;;;;5052815;28;20320;-82
2022/01/14 11:56:53;;;;;;;38.67;27.13;;;4.30;99.90;;;;;;5052558;28;20214;-82
2022/01/14 11:59:47;;;;;;;40.93;26.73;;;4.40;99.90;;;;;;5053002;28;20211;-80
2022/01/14 12:02:34;;;;;;;38.40;27.23;;;4.40;99.90;;;;;;5053395;28;20234;-83
2022/01/14 12:05:06;;;;;;;40.07;26.13;;;4.30;99.90;;;;;;5052667;28;20663;-84
2022/01/14 12:08:23;;;;;;;39.77;28.47;;;4.50;99.90;;;;;;5053414;28;20190;-84
2022/01/14 12:11:20;;;;;;;37.73;27.97;;;4.60;99.90;;;;;;5053441;28;20198;-87
2022/01/14 12:13:59;;;;;;;39.10;28.70;;;4.70;99.90;;;;;;5047821;28;20221;-88
2022/01/14 12:16:49;;;;;;;42.87;28.80;;;4.80;99.90;;;;;;5036123;28;20228;-87
2022/01/14 12:19:23;;;;;;;39.37;28.90;;;4.80;99.90;;;;;;5055118;28;20202;-87
2022/01/14 12:22:11;;;;;;;39.60;29.67;;;4.70;99.90;;;;;;5037199;28;20289;-87
2022/01/14 12:24:52;;;;;;;39.80;28.87;;;4.90;99.90;;;;;;5055032;28;20624;-86
2022/01/14 12:27:45;;;;;;;43.00;29.00;;;5.10;99.90;;;;;;5047164;28;20213;-87
2022/01/14 12:30:21;;;;;;;43.83;29.60;;;5.00;99.90;;;;;;5056181;28;21463;-86
2022/01/14 12:32:57;;;;;;;40.77;29.43;;;5.10;99.90;;;;;;5056464;28;20613;-87
2022/01/14 12:35:35;;;;;;;49.63;38.90;;;5.20;99.90;;;;;;5053058;28;20924;-87
2022/01/14 12:38:05;;;;;;;45.40;33.37;;;5.60;99.90;;;;;;5036043;28;20222;-88
2022/01/14 12:40:40;;;;;;;42.93;29.73;;;5.70;99.90;;;;;;5036429;28;20209;-86
2022/01/14 12:43:11;;;;;;;40.67;29.03;;;5.80;99.90;;;;;;5053034;28;20267;-85
2022/01/14 12:45:51;;;;;;;40.47;30.37;;;5.80;99.90;;;;;;5052473;28;20202;-88
2022/01/14 12:48:38;;;;;;;42.53;30.53;;;5.70;99.90;;;;;;5052423;28;20262;-86
2022/01/14 12:51:14;;;;;;;43.70;29.60;;;5.50;99.90;;;;;;5035006;28;20205;-83
2022/01/14 12:53:58;;;;;;;40.87;30.40;;;5.70;99.90;;;;;;5052890;28;20618;-84
2022/01/14 12:56:28;;;;;;;38.63;29.20;;;5.80;99.90;;;;;;5034310;28;20276;-86
2022/01/14 12:59:01;;;;;;;36.30;28.37;;;5.90;99.90;;;;;;5056337;28;20270;-87
2022/01/14 13:01:35;;;;;;;39.53;29.20;;;6.10;99.90;;;;;;5053951;28;20195;-84
2022/01/14 13:04:09;;;;;;;36.10;27.20;;;6.20;99.90;;;;;;5035677;28;20233;-88
2022/01/14 13:06:53;;;;;;;41.50;29.97;;;6.20;99.90;;;;;;5056554;28;20205;-85
2022/01/14 13:09:22;;;;;;;41.27;29.70;;;6.20;99.90;;;;;;5053108;28;20659;-83
2022/01/14 13:11:54;;;;;;;39.27;29.33;;;6.30;99.90;;;;;;5055852;28;20195;-86
2022/01/14 13:14:30;;;;;;;46.37;33.47;;;6.30;99.90;;;;;;5038335;28;20206;-83
2022/01/14 13:17:07;;;;;;;39.33;30.40;;;6.30;99.90;;;;;;5056408;28;20202;-85
2022/01/14 13:19:37;;;;;;;46.07;31.87;;;6.00;99.90;;;;;;5056746;28;20209;-86
2022/01/14 13:22:08;;;;;;;46.07;32.07;;;6.10;99.90;;;;;;5056107;28;20215;-88
2022/01/14 13:24:44;;;;;;;47.37;32.03;;;6.20;99.90;;;;;;5056470;28;20203;-86
2022/01/14 13:27:12;;;;;;;49.47;32.37;;;6.10;99.90;;;;;;5056630;28;20277;-86
2022/01/14 13:29:47;;;;;;;42.93;30.47;;;6.20;99.90;;;;;;5055921;28;20234;-85